sensor_id;sensor_type;location;lat;lon;timestamp;P1;durP1;ratioP1;P2;durP2;ratioP2
71290;SDS011;59073;51.994;4.448;2022-12-24T00:00:24;11.66;;;6.99;;
71290;SDS011;59073;51.994;4.448;2022-12-24T00:02:49;11.36;;;6.85;;
71290;SDS011;59073;51.994;4.448;2022-12-24T00:05:15;12.52;;;7.52;;
71290;SDS011;59073;51.994;4.448;2022-12-24T00:07:41;12.20;;;7.33;;
71290;SDS011;59073;51.994;4.448;2022-12-24T00:10:07;12.26;;;7.28;;
71290;SDS011;59073;51.994;4.448;2022-12-24T00:12:33;12.87;;;7.55;;
71290;SDS011;59073;51.994;4.448;2022-12-24T00:14:58;11.93;;;7.01;;
71290;SDS011;59073;51.994;4.448;2022-12-24T00:17:24;11.68;;;6.90;;
71290;SDS011;59073;51.994;4.448;2022-12-24T00:19:49;12.43;;;7.42;;
71290;SDS011;59073;51.994;4.448;2022-12-24T00:22:15;12.23;;;7.29;;
71290;SDS011;59073;51.994;4.448;2022-12-24T00:24:40;12.11;;;7.23;;
71290;SDS011;59073;51.994;4.448;2022-12-24T00:27:05;11.92;;;7.11;;
71290;SDS011;59073;51.994;4.448;2022-12-24T00:29:31;11.47;;;6.94;;
71290;SDS011;59073;51.994;4.448;2022-12-24T00:31:57;10.54;;;6.44;;
71290;SDS011;59073;51.994;4.448;2022-12-24T00:34:23;10.14;;;6.22;;
71290;SDS011;59073;51.994;4.448;2022-12-24T00:36:49;10.97;;;6.75;;
71290;SDS011;59073;51.994;4.448;2022-12-24T00:39:15;10.23;;;6.33;;
71290;SDS011;59073;51.994;4.448;2022-12-24T00:41:40;9.65;;;5.99;;
71290;SDS011;59073;51.994;4.448;2022-12-24T00:44:06;10.79;;;6.63;;
71290;SDS011;59073;51.994;4.448;2022-12-24T00:46:34;9.76;;;5.80;;
71290;SDS011;59073;51.994;4.448;2022-12-24T00:49:02;11.33;;;6.82;;
71290;SDS011;59073;51.994;4.448;2022-12-24T00:51:29;11.46;;;6.91;;
71290;SDS011;59073;51.994;4.448;2022-12-24T00:53:55;11.56;;;6.90;;
71290;SDS011;59073;51.994;4.448;2022-12-24T00:56:20;11.73;;;6.96;;
71290;SDS011;59073;51.994;4.448;2022-12-24T00:58:46;12.64;;;7.52;;
71290;SDS011;59073;51.994;4.448;2022-12-24T01:01:12;11.34;;;6.88;;
71290;SDS011;59073;51.994;4.448;2022-12-24T01:03:37;10.64;;;6.45;;
71290;SDS011;59073;51.994;4.448;2022-12-24T01:06:03;11.16;;;6.77;;
71290;SDS011;59073;51.994;4.448;2022-12-24T01:08:32;11.84;;;7.24;;
71290;SDS011;59073;51.994;4.448;2022-12-24T01:10:59;11.60;;;6.99;;
71290;SDS011;59073;51.994;4.448;2022-12-24T01:13:26;10.39;;;6.17;;
71290;SDS011;59073;51.994;4.448;2022-12-24T01:15:51;12.12;;;7.16;;
71290;SDS011;59073;51.994;4.448;2022-12-24T01:18:17;12.37;;;7.32;;
71290;SDS011;59073;51.994;4.448;2022-12-24T01:20:42;11.92;;;7.05;;
71290;SDS011;59073;51.994;4.448;2022-12-24T01:23:08;14.13;;;8.24;;
71290;SDS011;59073;51.994;4.448;2022-12-24T01:25:33;13.74;;;8.14;;
71290;SDS011;59073;51.994;4.448;2022-12-24T01:27:59;11.07;;;6.61;;
71290;SDS011;59073;51.994;4.448;2022-12-24T01:30:24;11.32;;;6.74;;
71290;SDS011;59073;51.994;4.448;2022-12-24T01:32:50;11.71;;;6.89;;
71290;SDS011;59073;51.994;4.448;2022-12-24T01:35:15;12.86;;;7.55;;
71290;SDS011;59073;51.994;4.448;2022-12-24T01:37:41;12.14;;;7.14;;
71290;SDS011;59073;51.994;4.448;2022-12-24T01:40:09;10.65;;;6.37;;
71290;SDS011;59073;51.994;4.448;2022-12-24T01:42:58;10.53;;;6.40;;
71290;SDS011;59073;51.994;4.448;2022-12-24T01:45:44;11.05;;;6.59;;
71290;SDS011;59073;51.994;4.448;2022-12-24T01:51:00;9.81;;;5.84;;
71290;SDS011;59073;51.994;4.448;2022-12-24T01:53:49;12.51;;;7.35;;
71290;SDS011;59073;51.994;4.448;2022-12-24T01:56:20;9.57;;;5.71;;
71290;SDS011;59073;51.994;4.448;2022-12-24T01:58:49;9.70;;;5.76;;
71290;SDS011;59073;51.994;4.448;2022-12-24T02:01:19;9.34;;;5.60;;
71290;SDS011;59073;51.994;4.448;2022-12-24T02:03:45;9.28;;;5.60;;
71290;SDS011;59073;51.994;4.448;2022-12-24T02:06:11;8.28;;;5.02;;
71290;SDS011;59073;51.994;4.448;2022-12-24T02:08:40;7.32;;;4.52;;
71290;SDS011;59073;51.994;4.448;2022-12-24T02:11:13;7.12;;;4.47;;
71290;SDS011;59073;51.994;4.448;2022-12-24T02:13:42;8.07;;;4.95;;
71290;SDS011;59073;51.994;4.448;2022-12-24T02:19:16;8.20;;;4.95;;
71290;SDS011;59073;51.994;4.448;2022-12-24T02:22:01;7.97;;;4.83;;
71290;SDS011;59073;51.994;4.448;2022-12-24T02:30:05;9.44;;;5.61;;
71290;SDS011;59073;51.994;4.448;2022-12-24T02:38:44;11.27;;;6.83;;
71290;SDS011;59073;51.994;4.448;2022-12-24T02:41:26;9.69;;;5.83;;
71290;SDS011;59073;51.994;4.448;2022-12-24T02:44:17;9.66;;;5.95;;
71290;SDS011;59073;51.994;4.448;2022-12-24T02:46:48;11.99;;;7.34;;
71290;SDS011;59073;51.994;4.448;2022-12-24T02:49:14;11.49;;;6.83;;
71290;SDS011;59073;51.994;4.448;2022-12-24T02:51:40;12.60;;;7.43;;
71290;SDS011;59073;51.994;4.448;2022-12-24T02:54:05;11.03;;;6.51;;
71290;SDS011;59073;51.994;4.448;2022-12-24T03:02:29;12.32;;;7.25;;
71290;SDS011;59073;51.994;4.448;2022-12-24T03:05:23;11.96;;;7.03;;
71290;SDS011;59073;51.994;4.448;2022-12-24T03:08:35;13.34;;;7.88;;
71290;SDS011;59073;51.994;4.448;2022-12-24T03:11:11;13.19;;;7.75;;
71290;SDS011;59073;51.994;4.448;2022-12-24T03:13:39;11.74;;;6.97;;
71290;SDS011;59073;51.994;4.448;2022-12-24T03:16:07;12.49;;;7.43;;
71290;SDS011;59073;51.994;4.448;2022-12-24T03:18:38;10.58;;;6.28;;
71290;SDS011;59073;51.994;4.448;2022-12-24T03:24:01;12.43;;;7.36;;
71290;SDS011;59073;51.994;4.448;2022-12-24T03:26:28;13.75;;;8.19;;
71290;SDS011;59073;51.994;4.448;2022-12-24T03:28:56;11.79;;;6.92;;
71290;SDS011;59073;51.994;4.448;2022-12-24T03:31:22;11.72;;;6.97;;
71290;SDS011;59073;51.994;4.448;2022-12-24T03:33:48;12.89;;;7.64;;
71290;SDS011;59073;51.994;4.448;2022-12-24T03:36:15;11.26;;;6.61;;
71290;SDS011;59073;51.994;4.448;2022-12-24T03:38:41;12.91;;;7.54;;
71290;SDS011;59073;51.994;4.448;2022-12-24T03:41:06;13.58;;;7.96;;
71290;SDS011;59073;51.994;4.448;2022-12-24T03:43:34;11.66;;;6.87;;
71290;SDS011;59073;51.994;4.448;2022-12-24T03:46:03;12.54;;;7.38;;
71290;SDS011;59073;51.994;4.448;2022-12-24T03:48:31;12.86;;;7.57;;
71290;SDS011;59073;51.994;4.448;2022-12-24T03:50:58;11.18;;;6.63;;
71290;SDS011;59073;51.994;4.448;2022-12-24T03:53:23;11.84;;;7.15;;
71290;SDS011;59073;51.994;4.448;2022-12-24T03:55:48;10.70;;;6.50;;
71290;SDS011;59073;51.994;4.448;2022-12-24T03:58:14;9.68;;;5.74;;
71290;SDS011;59073;51.994;4.448;2022-12-24T04:00:39;10.72;;;6.36;;
71290;SDS011;59073;51.994;4.448;2022-12-24T04:03:05;10.16;;;6.09;;
71290;SDS011;59073;51.994;4.448;2022-12-24T04:05:30;10.84;;;6.43;;
71290;SDS011;59073;51.994;4.448;2022-12-24T04:07:55;9.88;;;5.91;;
71290;SDS011;59073;51.994;4.448;2022-12-24T04:10:21;10.32;;;6.21;;
71290;SDS011;59073;51.994;4.448;2022-12-24T04:12:46;10.46;;;6.24;;
71290;SDS011;59073;51.994;4.448;2022-12-24T04:15:12;10.94;;;6.42;;
71290;SDS011;59073;51.994;4.448;2022-12-24T04:17:37;9.21;;;5.53;;
71290;SDS011;59073;51.994;4.448;2022-12-24T04:20:02;9.89;;;5.97;;
71290;SDS011;59073;51.994;4.448;2022-12-24T04:22:28;8.87;;;5.33;;
71290;SDS011;59073;51.994;4.448;2022-12-24T04:24:54;9.95;;;5.94;;
71290;SDS011;59073;51.994;4.448;2022-12-24T04:27:19;11.07;;;6.54;;
71290;SDS011;59073;51.994;4.448;2022-12-24T04:29:44;12.01;;;7.14;;
71290;SDS011;59073;51.994;4.448;2022-12-24T04:32:10;10.80;;;6.45;;
71290;SDS011;59073;51.994;4.448;2022-12-24T04:34:35;9.53;;;5.72;;
71290;SDS011;59073;51.994;4.448;2022-12-24T04:37:01;10.23;;;6.11;;
71290;SDS011;59073;51.994;4.448;2022-12-24T04:39:27;10.55;;;6.28;;
71290;SDS011;59073;51.994;4.448;2022-12-24T04:41:53;9.61;;;5.63;;
71290;SDS011;59073;51.994;4.448;2022-12-24T04:44:18;11.50;;;6.70;;
71290;SDS011;59073;51.994;4.448;2022-12-24T04:46:44;11.67;;;6.83;;
71290;SDS011;59073;51.994;4.448;2022-12-24T04:49:09;11.10;;;6.56;;
71290;SDS011;59073;51.994;4.448;2022-12-24T04:51:35;11.01;;;6.53;;
71290;SDS011;59073;51.994;4.448;2022-12-24T04:54:00;11.94;;;7.10;;
71290;SDS011;59073;51.994;4.448;2022-12-24T04:56:27;10.67;;;6.44;;
71290;SDS011;59073;51.994;4.448;2022-12-24T04:58:54;11.09;;;6.65;;
71290;SDS011;59073;51.994;4.448;2022-12-24T05:01:21;10.48;;;6.35;;
71290;SDS011;59073;51.994;4.448;2022-12-24T05:03:48;10.67;;;6.42;;
71290;SDS011;59073;51.994;4.448;2022-12-24T05:06:16;12.76;;;7.53;;
71290;SDS011;59073;51.994;4.448;2022-12-24T05:08:43;12.68;;;7.49;;
71290;SDS011;59073;51.994;4.448;2022-12-24T05:11:09;12.50;;;7.38;;
71290;SDS011;59073;51.994;4.448;2022-12-24T05:13:38;13.08;;;7.73;;
71290;SDS011;59073;51.994;4.448;2022-12-24T05:16:05;11.27;;;6.66;;
71290;SDS011;59073;51.994;4.448;2022-12-24T05:18:30;11.80;;;7.02;;
71290;SDS011;59073;51.994;4.448;2022-12-24T05:20:56;12.06;;;7.18;;
71290;SDS011;59073;51.994;4.448;2022-12-24T05:23:22;12.55;;;7.44;;
71290;SDS011;59073;51.994;4.448;2022-12-24T05:26:11;11.04;;;6.60;;
71290;SDS011;59073;51.994;4.448;2022-12-24T05:28:51;11.35;;;6.73;;
71290;SDS011;59073;51.994;4.448;2022-12-24T05:31:18;12.51;;;7.39;;
71290;SDS011;59073;51.994;4.448;2022-12-24T05:33:45;13.03;;;7.75;;
71290;SDS011;59073;51.994;4.448;2022-12-24T05:36:10;11.82;;;7.06;;
71290;SDS011;59073;51.994;4.448;2022-12-24T05:38:36;11.93;;;7.08;;
71290;SDS011;59073;51.994;4.448;2022-12-24T05:41:02;12.32;;;7.37;;
71290;SDS011;59073;51.994;4.448;2022-12-24T05:43:28;11.29;;;6.65;;
71290;SDS011;59073;51.994;4.448;2022-12-24T05:46:00;12.83;;;7.57;;
71290;SDS011;59073;51.994;4.448;2022-12-24T05:48:27;12.44;;;7.40;;
71290;SDS011;59073;51.994;4.448;2022-12-24T05:50:53;11.41;;;6.89;;
71290;SDS011;59073;51.994;4.448;2022-12-24T05:53:20;12.08;;;7.29;;
71290;SDS011;59073;51.994;4.448;2022-12-24T05:55:46;13.01;;;7.78;;
71290;SDS011;59073;51.994;4.448;2022-12-24T05:58:11;12.87;;;7.63;;
71290;SDS011;59073;51.994;4.448;2022-12-24T06:00:36;12.19;;;7.19;;
71290;SDS011;59073;51.994;4.448;2022-12-24T06:03:02;13.56;;;8.00;;
71290;SDS011;59073;51.994;4.448;2022-12-24T06:05:27;13.94;;;8.07;;
71290;SDS011;59073;51.994;4.448;2022-12-24T06:07:53;13.76;;;8.01;;
71290;SDS011;59073;51.994;4.448;2022-12-24T06:10:19;14.84;;;8.61;;
71290;SDS011;59073;51.994;4.448;2022-12-24T06:12:44;12.95;;;7.62;;
71290;SDS011;59073;51.994;4.448;2022-12-24T06:15:10;14.27;;;8.45;;
71290;SDS011;59073;51.994;4.448;2022-12-24T06:17:35;15.42;;;9.03;;
71290;SDS011;59073;51.994;4.448;2022-12-24T06:20:01;12.96;;;7.67;;
71290;SDS011;59073;51.994;4.448;2022-12-24T06:22:27;15.31;;;8.95;;
71290;SDS011;59073;51.994;4.448;2022-12-24T06:24:52;16.69;;;9.72;;
71290;SDS011;59073;51.994;4.448;2022-12-24T06:27:18;16.11;;;9.34;;
71290;SDS011;59073;51.994;4.448;2022-12-24T06:29:43;15.84;;;9.13;;
71290;SDS011;59073;51.994;4.448;2022-12-24T06:32:09;15.50;;;9.07;;
71290;SDS011;59073;51.994;4.448;2022-12-24T06:34:34;15.81;;;9.42;;
71290;SDS011;59073;51.994;4.448;2022-12-24T06:37:00;13.44;;;7.90;;
71290;SDS011;59073;51.994;4.448;2022-12-24T06:39:25;12.84;;;7.47;;
71290;SDS011;59073;51.994;4.448;2022-12-24T06:41:51;14.41;;;8.46;;
71290;SDS011;59073;51.994;4.448;2022-12-24T06:44:17;16.06;;;9.35;;
71290;SDS011;59073;51.994;4.448;2022-12-24T06:46:42;15.34;;;8.84;;
71290;SDS011;59073;51.994;4.448;2022-12-24T06:49:07;13.89;;;8.07;;
71290;SDS011;59073;51.994;4.448;2022-12-24T06:51:35;15.12;;;8.85;;
71290;SDS011;59073;51.994;4.448;2022-12-24T06:54:04;15.79;;;9.17;;
71290;SDS011;59073;51.994;4.448;2022-12-24T06:56:34;15.75;;;9.08;;
71290;SDS011;59073;51.994;4.448;2022-12-24T06:59:10;13.94;;;8.04;;
71290;SDS011;59073;51.994;4.448;2022-12-24T07:01:47;13.85;;;8.13;;
71290;SDS011;59073;51.994;4.448;2022-12-24T07:48:33;12.97;;;7.76;;
71290;SDS011;59073;51.994;4.448;2022-12-24T08:12:39;16.26;;;9.36;;
71290;SDS011;59073;51.994;4.448;2022-12-24T08:26:12;13.11;;;7.87;;
71290;SDS011;59073;51.994;4.448;2022-12-24T08:31:31;12.90;;;7.93;;
71290;SDS011;59073;51.994;4.448;2022-12-24T08:41:37;13.78;;;8.34;;
71290;SDS011;59073;51.994;4.448;2022-12-24T08:53:47;13.43;;;7.99;;
71290;SDS011;59073;51.994;4.448;2022-12-24T08:56:54;12.87;;;7.60;;
71290;SDS011;59073;51.994;4.448;2022-12-24T09:06:11;14.05;;;8.22;;
71290;SDS011;59073;51.994;4.448;2022-12-24T09:19:21;11.72;;;7.04;;
71290;SDS011;59073;51.994;4.448;2022-12-24T09:25:52;11.11;;;6.66;;
71290;SDS011;59073;51.994;4.448;2022-12-24T09:31:44;13.47;;;8.00;;
71290;SDS011;59073;51.994;4.448;2022-12-24T09:54:43;12.71;;;7.44;;
71290;SDS011;59073;51.994;4.448;2022-12-24T10:15:38;11.30;;;6.78;;
71290;SDS011;59073;51.994;4.448;2022-12-24T10:52:18;8.42;;;5.09;;
71290;SDS011;59073;51.994;4.448;2022-12-24T11:19:46;8.43;;;5.17;;
71290;SDS011;59073;51.994;4.448;2022-12-24T12:07:18;7.82;;;4.86;;
71290;SDS011;59073;51.994;4.448;2022-12-24T17:06:48;6.75;;;5.28;;
71290;SDS011;59073;51.994;4.448;2022-12-24T17:09:42;6.82;;;5.47;;
71290;SDS011;59073;51.994;4.448;2022-12-24T17:26:04;7.51;;;6.29;;
71290;SDS011;59073;51.994;4.448;2022-12-24T17:41:29;7.65;;;6.51;;
